sensor_id;sensor_type;location;lat;lon;timestamp;pressure;altitude;pressure_sealevel;temperature;humidity
48668;BME280;34453;52.198;5.004;2022-09-20T00:00:50;102439.97;;;11.31;100.00
48668;BME280;34453;52.198;5.004;2022-09-20T00:03:16;102443.38;;;11.20;100.00
48668;BME280;34453;52.198;5.004;2022-09-20T00:05:44;102449.13;;;11.26;100.00
48668;BME280;34453;52.198;5.004;2022-09-20T00:08:13;102436.44;;;11.19;100.00
48668;BME280;34453;52.198;5.004;2022-09-20T00:10:39;102445.75;;;11.11;100.00
48668;BME280;34453;52.198;5.004;2022-09-20T00:13:06;102445.16;;;11.07;100.00
48668;BME280;34453;52.198;5.004;2022-09-20T00:15:33;102439.59;;;10.99;100.00
48668;BME280;34453;52.198;5.004;2022-09-20T00:17:58;102443.47;;;10.93;100.00
48668;BME280;34453;52.198;5.004;2022-09-20T00:20:25;102442.22;;;10.99;100.00
48668;BME280;34453;52.198;5.004;2022-09-20T00:22:50;102447.44;;;10.99;100.00
48668;BME280;34453;52.198;5.004;2022-09-20T00:25:16;102432.16;;;10.93;100.00
48668;BME280;34453;52.198;5.004;2022-09-20T00:27:42;102442.22;;;10.99;100.00
48668;BME280;34453;52.198;5.004;2022-09-20T00:30:09;102446.19;;;11.05;100.00
48668;BME280;34453;52.198;5.004;2022-09-20T00:32:35;102447.22;;;11.02;100.00
48668;BME280;34453;52.198;5.004;2022-09-20T00:35:00;102448.81;;;11.05;100.00
48668;BME280;34453;52.198;5.004;2022-09-20T00:37:36;102447.88;;;11.06;100.00
48668;BME280;34453;52.198;5.004;2022-09-20T00:40:02;102449.22;;;11.11;100.00
48668;BME280;34453;52.198;5.004;2022-09-20T00:42:30;102439.06;;;11.07;100.00
48668;BME280;34453;52.198;5.004;2022-09-20T00:44:58;102457.63;;;11.16;100.00
48668;BME280;34453;52.198;5.004;2022-09-20T00:47:41;102448.06;;;11.15;100.00
48668;BME280;34453;52.198;5.004;2022-09-20T00:50:44;102447.56;;;11.23;100.00
48668;BME280;34453;52.198;5.004;2022-09-20T00:55:56;102454.13;;;11.29;100.00
48668;BME280;34453;52.198;5.004;2022-09-20T00:58:24;102447.00;;;11.31;100.00
48668;BME280;34453;52.198;5.004;2022-09-20T01:00:53;102450.38;;;11.33;100.00
48668;BME280;34453;52.198;5.004;2022-09-20T01:03:20;102441.44;;;11.35;100.00
48668;BME280;34453;52.198;5.004;2022-09-20T01:05:48;102444.28;;;11.32;100.00
48668;BME280;34453;52.198;5.004;2022-09-20T01:08:15;102442.59;;;11.31;100.00
48668;BME280;34453;52.198;5.004;2022-09-20T01:10:41;102452.97;;;11.33;100.00
48668;BME280;34453;52.198;5.004;2022-09-20T01:13:07;102443.66;;;11.29;100.00
48668;BME280;34453;52.198;5.004;2022-09-20T01:15:35;102447.44;;;11.25;100.00
48668;BME280;34453;52.198;5.004;2022-09-20T01:18:02;102441.59;;;11.21;100.00
48668;BME280;34453;52.198;5.004;2022-09-20T01:20:31;102449.53;;;11.19;100.00
48668;BME280;34453;52.198;5.004;2022-09-20T01:28:38;102443.25;;;11.09;100.00
48668;BME280;34453;52.198;5.004;2022-09-20T01:31:07;102453.31;;;11.15;100.00
48668;BME280;34453;52.198;5.004;2022-09-20T01:33:46;102440.53;;;11.11;100.00
48668;BME280;34453;52.198;5.004;2022-09-20T01:36:18;102448.47;;;11.09;100.00
48668;BME280;34453;52.198;5.004;2022-09-20T01:39:17;102448.19;;;11.14;100.00
48668;BME280;34453;52.198;5.004;2022-09-20T01:42:17;102450.59;;;11.17;100.00
48668;BME280;34453;52.198;5.004;2022-09-20T01:45:06;102455.84;;;11.17;100.00
48668;BME280;34453;52.198;5.004;2022-09-20T01:47:41;102459.38;;;11.16;100.00
48668;BME280;34453;52.198;5.004;2022-09-20T01:50:35;102446.00;;;11.20;100.00
48668;BME280;34453;52.198;5.004;2022-09-20T01:56:44;102458.13;;;11.22;100.00
48668;BME280;34453;52.198;5.004;2022-09-20T02:02:05;102446.00;;;11.20;100.00
48668;BME280;34453;52.198;5.004;2022-09-20T02:04:58;102442.91;;;11.27;100.00
48668;BME280;34453;52.198;5.004;2022-09-20T02:10:38;102445.13;;;11.33;100.00
48668;BME280;34453;52.198;5.004;2022-09-20T02:13:09;102428.16;;;11.26;100.00
48668;BME280;34453;52.198;5.004;2022-09-20T02:27:25;102434.22;;;11.13;100.00
48668;BME280;34453;52.198;5.004;2022-09-20T02:35:29;102450.28;;;11.09;100.00
48668;BME280;34453;52.198;5.004;2022-09-20T02:46:34;102455.41;;;10.97;100.00
48668;BME280;34453;52.198;5.004;2022-09-20T02:52:31;102458.25;;;10.94;100.00
48668;BME280;34453;52.198;5.004;2022-09-20T03:01:24;102456.69;;;10.92;100.00
48668;BME280;34453;52.198;5.004;2022-09-20T03:09:32;102439.78;;;10.96;100.00
48668;BME280;34453;52.198;5.004;2022-09-20T03:14:45;102438.44;;;11.03;100.00
48668;BME280;34453;52.198;5.004;2022-09-20T03:20:19;102449.44;;;11.08;100.00
48668;BME280;34453;52.198;5.004;2022-09-20T03:25:33;102448.59;;;11.08;100.00
48668;BME280;34453;52.198;5.004;2022-09-20T03:28:48;102448.47;;;11.09;100.00
48668;BME280;34453;52.198;5.004;2022-09-20T03:34:20;102452.06;;;11.08;100.00
48668;BME280;34453;52.198;5.004;2022-09-20T03:42:21;102448.81;;;11.05;100.00
48668;BME280;34453;52.198;5.004;2022-09-20T03:48:02;102453.63;;;11.11;100.00
48668;BME280;34453;52.198;5.004;2022-09-20T03:53:40;102454.59;;;11.10;100.00
48668;BME280;34453;52.198;5.004;2022-09-20T04:04:39;102448.72;;;11.19;100.00
48668;BME280;34453;52.198;5.004;2022-09-20T04:23:33;102442.00;;;11.15;100.00
48668;BME280;34453;52.198;5.004;2022-09-20T04:26:01;102448.81;;;11.17;100.00
48668;BME280;34453;52.198;5.004;2022-09-20T04:28:38;102442.84;;;11.15;100.00
48668;BME280;34453;52.198;5.004;2022-09-20T04:31:24;102447.00;;;11.18;100.00
48668;BME280;34453;52.198;5.004;2022-09-20T04:33:54;102446.59;;;11.11;100.00
48668;BME280;34453;52.198;5.004;2022-09-20T04:37:00;102446.81;;;11.08;100.00
48668;BME280;34453;52.198;5.004;2022-09-20T04:39:56;102440.53;;;10.98;100.00
48668;BME280;34453;52.198;5.004;2022-09-20T04:54:25;102468.28;;;10.88;100.00
48668;BME280;34453;52.198;5.004;2022-09-20T05:11:10;102483.13;;;10.62;100.00
48668;BME280;34453;52.198;5.004;2022-09-20T05:14:14;102481.00;;;10.54;100.00
48668;BME280;34453;52.198;5.004;2022-09-20T05:28:17;102488.00;;;10.41;100.00
48668;BME280;34453;52.198;5.004;2022-09-20T05:30:48;102495.94;;;10.39;100.00
48668;BME280;34453;52.198;5.004;2022-09-20T05:33:43;102491.53;;;10.40;100.00
48668;BME280;34453;52.198;5.004;2022-09-20T05:37:14;102492.66;;;10.35;100.00
48668;BME280;34453;52.198;5.004;2022-09-20T05:42:52;102504.00;;;10.36;100.00
48668;BME280;34453;52.198;5.004;2022-09-20T06:02:15;102501.59;;;10.46;100.00
48668;BME280;34453;52.198;5.004;2022-09-20T06:04:58;102510.72;;;10.53;100.00
48668;BME280;34453;52.198;5.004;2022-09-20T06:13:16;102513.84;;;10.45;100.00
48668;BME280;34453;52.198;5.004;2022-09-20T06:15:59;102519.19;;;10.44;100.00
48668;BME280;34453;52.198;5.004;2022-09-20T06:23:44;102527.16;;;10.55;100.00
48668;BME280;34453;52.198;5.004;2022-09-20T06:26:16;102524.84;;;10.50;100.00
48668;BME280;34453;52.198;5.004;2022-09-20T06:28:50;102533.66;;;10.49;100.00
48668;BME280;34453;52.198;5.004;2022-09-20T06:31:17;102525.69;;;10.51;100.00
48668;BME280;34453;52.198;5.004;2022-09-20T06:34:08;102532.19;;;10.58;100.00
48668;BME280;34453;52.198;5.004;2022-09-20T06:36:38;102535.06;;;10.68;100.00
48668;BME280;34453;52.198;5.004;2022-09-20T06:42:17;102533.19;;;10.83;100.00
48668;BME280;34453;52.198;5.004;2022-09-20T06:44:42;102530.41;;;10.86;100.00
48668;BME280;34453;52.198;5.004;2022-09-20T06:47:09;102531.66;;;10.93;100.00
48668;BME280;34453;52.198;5.004;2022-09-20T06:49:36;102517.72;;;10.92;100.00
48668;BME280;34453;52.198;5.004;2022-09-20T06:52:07;102520.38;;;11.05;100.00
48668;BME280;34453;52.198;5.004;2022-09-20T06:54:36;102523.94;;;11.17;100.00
48668;BME280;34453;52.198;5.004;2022-09-20T06:57:03;102526.44;;;11.31;100.00
48668;BME280;34453;52.198;5.004;2022-09-20T06:59:30;102528.56;;;11.39;100.00
48668;BME280;34453;52.198;5.004;2022-09-20T07:01:56;102524.16;;;11.39;100.00
48668;BME280;34453;52.198;5.004;2022-09-20T07:04:21;102524.16;;;11.52;100.00
48668;BME280;34453;52.198;5.004;2022-09-20T07:06:52;102528.75;;;11.61;100.00
48668;BME280;34453;52.198;5.004;2022-09-20T07:09:24;102515.88;;;11.58;100.00
48668;BME280;34453;52.198;5.004;2022-09-20T07:11:50;102520.56;;;11.66;100.00
48668;BME280;34453;52.198;5.004;2022-09-20T07:14:16;102531.22;;;11.76;100.00
48668;BME280;34453;52.198;5.004;2022-09-20T07:16:43;102534.59;;;11.78;100.00
48668;BME280;34453;52.198;5.004;2022-09-20T07:19:09;102522.44;;;11.77;100.00
48668;BME280;34453;52.198;5.004;2022-09-20T07:21:35;102519.41;;;11.83;100.00
48668;BME280;34453;52.198;5.004;2022-09-20T07:24:01;102539.66;;;12.18;100.00
48668;BME280;34453;52.198;5.004;2022-09-20T07:26:28;102535.78;;;12.23;100.00
48668;BME280;34453;52.198;5.004;2022-09-20T07:28:55;102529.06;;;12.19;100.00
48668;BME280;34453;52.198;5.004;2022-09-20T07:31:24;102539.28;;;12.35;100.00
48668;BME280;34453;52.198;5.004;2022-09-20T07:33:49;102539.34;;;12.47;100.00
48668;BME280;34453;52.198;5.004;2022-09-20T07:36:16;102517.69;;;12.32;100.00
48668;BME280;34453;52.198;5.004;2022-09-20T07:38:45;102537.94;;;12.54;100.00
48668;BME280;34453;52.198;5.004;2022-09-20T07:41:12;102533.41;;;12.56;100.00
48668;BME280;34453;52.198;5.004;2022-09-20T07:43:38;102549.00;;;12.70;100.00
48668;BME280;34453;52.198;5.004;2022-09-20T07:46:03;102560.28;;;12.83;100.00
48668;BME280;34453;52.198;5.004;2022-09-20T07:48:32;102549.19;;;12.91;100.00
48668;BME280;34453;52.198;5.004;2022-09-20T07:51:01;102544.66;;;12.93;100.00
48668;BME280;34453;52.198;5.004;2022-09-20T07:53:27;102547.59;;;13.13;100.00
48668;BME280;34453;52.198;5.004;2022-09-20T07:56:02;102552.53;;;13.29;100.00
48668;BME280;34453;52.198;5.004;2022-09-20T07:58:29;102555.19;;;13.40;100.00
48668;BME280;34453;52.198;5.004;2022-09-20T08:00:57;102550.41;;;13.45;100.00
48668;BME280;34453;52.198;5.004;2022-09-20T08:03:24;102541.09;;;13.41;100.00
48668;BME280;34453;52.198;5.004;2022-09-20T08:05:50;102565.97;;;13.59;100.00
48668;BME280;34453;52.198;5.004;2022-09-20T08:08:16;102554.00;;;13.66;100.00
48668;BME280;34453;52.198;5.004;2022-09-20T08:10:45;102560.94;;;13.67;100.00
48668;BME280;34453;52.198;5.004;2022-09-20T08:13:12;102563.69;;;13.66;100.00
48668;BME280;34453;52.198;5.004;2022-09-20T08:15:39;102565.50;;;13.77;100.00
48668;BME280;34453;52.198;5.004;2022-09-20T08:18:06;102584.63;;;13.79;100.00
48668;BME280;34453;52.198;5.004;2022-09-20T08:20:39;102577.66;;;13.78;100.00
48668;BME280;34453;52.198;5.004;2022-09-20T08:23:05;102573.38;;;13.65;100.00
48668;BME280;34453;52.198;5.004;2022-09-20T08:25:31;102565.34;;;13.67;100.00
48668;BME280;34453;52.198;5.004;2022-09-20T08:27:56;102573.38;;;13.65;100.00
48668;BME280;34453;52.198;5.004;2022-09-20T08:30:22;102573.38;;;13.65;100.00
48668;BME280;34453;52.198;5.004;2022-09-20T08:32:48;102570.97;;;13.74;100.00
48668;BME280;34453;52.198;5.004;2022-09-20T08:35:14;102581.38;;;13.86;100.00
48668;BME280;34453;52.198;5.004;2022-09-20T08:37:40;102564.50;;;13.89;100.00
48668;BME280;34453;52.198;5.004;2022-09-20T08:40:11;102567.63;;;13.94;100.00
48668;BME280;34453;52.198;5.004;2022-09-20T08:42:37;102572.88;;;14.05;100.00
48668;BME280;34453;52.198;5.004;2022-09-20T08:45:05;102570.72;;;14.10;100.00
48668;BME280;34453;52.198;5.004;2022-09-20T08:47:43;102577.88;;;14.20;100.00
48668;BME280;34453;52.198;5.004;2022-09-20T08:50:13;102572.13;;;14.26;100.00
48668;BME280;34453;52.198;5.004;2022-09-20T08:52:43;102580.06;;;14.47;100.00
48668;BME280;34453;52.198;5.004;2022-09-20T08:55:16;102592.03;;;14.62;100.00
48668;BME280;34453;52.198;5.004;2022-09-20T08:57:44;102587.59;;;14.63;100.00
48668;BME280;34453;52.198;5.004;2022-09-20T09:00:18;102580.63;;;14.73;100.00
48668;BME280;34453;52.198;5.004;2022-09-20T09:02:44;102585.00;;;14.84;100.00
48668;BME280;34453;52.198;5.004;2022-09-20T09:05:37;102587.47;;;14.97;100.00
48668;BME280;34453;52.198;5.004;2022-09-20T09:08:11;102596.53;;;15.04;100.00
48668;BME280;34453;52.198;5.004;2022-09-20T09:10:43;102589.06;;;15.09;100.00
48668;BME280;34453;52.198;5.004;2022-09-20T09:13:41;102597.56;;;15.12;100.00
48668;BME280;34453;52.198;5.004;2022-09-20T09:16:12;102600.59;;;15.08;100.00
48668;BME280;34453;52.198;5.004;2022-09-20T09:18:42;102602.97;;;14.90;100.00
48668;BME280;34453;52.198;5.004;2022-09-20T09:21:15;102601.78;;;14.83;100.00
48668;BME280;34453;52.198;5.004;2022-09-20T09:23:49;102603.13;;;14.77;100.00
48668;BME280;34453;52.198;5.004;2022-09-20T09:26:20;102620.34;;;14.81;100.00
48668;BME280;34453;52.198;5.004;2022-09-20T09:28:59;102619.28;;;14.84;100.00
48668;BME280;34453;52.198;5.004;2022-09-20T09:31:32;102612.91;;;14.86;100.00
48668;BME280;34453;52.198;5.004;2022-09-20T09:33:57;102622.41;;;14.78;100.00
48668;BME280;34453;52.198;5.004;2022-09-20T09:36:24;102615.97;;;14.70;100.00
48668;BME280;34453;52.198;5.004;2022-09-20T09:41:36;102613.69;;;14.66;100.00
48668;BME280;34453;52.198;5.004;2022-09-20T09:44:15;102589.53;;;14.61;100.00
48668;BME280;34453;52.198;5.004;2022-09-20T09:46:43;102606.13;;;14.73;100.00
48668;BME280;34453;52.198;5.004;2022-09-20T09:49:16;102611.09;;;14.87;100.00
48668;BME280;34453;52.198;5.004;2022-09-20T09:52:12;102603.72;;;14.81;100.00
48668;BME280;34453;52.198;5.004;2022-09-20T09:54:48;102587.97;;;14.90;100.00
48668;BME280;34453;52.198;5.004;2022-09-20T10:05:20;102583.94;;;15.28;100.00
48668;BME280;34453;52.198;5.004;2022-09-20T10:19:20;102586.38;;;15.41;100.00
48668;BME280;34453;52.198;5.004;2022-09-20T10:22:03;102585.91;;;15.57;100.00
48668;BME280;34453;52.198;5.004;2022-09-20T10:27:16;102587.03;;;15.64;100.00
48668;BME280;34453;52.198;5.004;2022-09-20T10:30:22;102584.75;;;15.81;100.00
48668;BME280;34453;52.198;5.004;2022-09-20T10:36:05;102576.84;;;15.81;100.00
48668;BME280;34453;52.198;5.004;2022-09-20T10:47:14;102582.47;;;15.97;100.00
48668;BME280;34453;52.198;5.004;2022-09-20T10:55:13;102570.78;;;16.50;100.00
48668;BME280;34453;52.198;5.004;2022-09-20T11:08:48;102562.97;;;17.16;100.00
48668;BME280;34453;52.198;5.004;2022-09-20T11:11:21;102559.38;;;17.08;100.00
48668;BME280;34453;52.198;5.004;2022-09-20T11:16:28;102566.09;;;17.39;100.00
48668;BME280;34453;52.198;5.004;2022-09-20T11:27:04;102565.19;;;17.96;100.00
48668;BME280;34453;52.198;5.004;2022-09-20T11:32:23;102567.41;;;18.18;100.00
48668;BME280;34453;52.198;5.004;2022-09-20T11:37:40;102565.16;;;17.68;100.00
48668;BME280;34453;52.198;5.004;2022-09-20T11:40:19;102567.56;;;17.52;100.00
48668;BME280;34453;52.198;5.004;2022-09-20T11:42:47;102553.84;;;17.38;100.00
48668;BME280;34453;52.198;5.004;2022-09-20T11:45:14;102571.56;;;17.28;100.00
48668;BME280;34453;52.198;5.004;2022-09-20T11:47:52;102574.41;;;16.97;100.00
48668;BME280;34453;52.198;5.004;2022-09-20T11:50:42;102572.19;;;16.93;100.00
48668;BME280;34453;52.198;5.004;2022-09-20T11:56:02;102577.28;;;17.14;100.00
48668;BME280;34453;52.198;5.004;2022-09-20T11:58:43;102566.19;;;16.91;100.00
48668;BME280;34453;52.198;5.004;2022-09-20T12:01:11;102563.00;;;16.68;100.00
48668;BME280;34453;52.198;5.004;2022-09-20T12:03:40;102568.13;;;16.69;100.00
48668;BME280;34453;52.198;5.004;2022-09-20T12:06:24;102562.56;;;16.72;100.00
48668;BME280;34453;52.198;5.004;2022-09-20T12:08:51;102557.81;;;16.76;100.00
48668;BME280;34453;52.198;5.004;2022-09-20T12:11:28;102568.41;;;16.76;100.00
48668;BME280;34453;52.198;5.004;2022-09-20T12:14:00;102560.25;;;17.36;100.00
48668;BME280;34453;52.198;5.004;2022-09-20T12:16:43;102562.47;;;17.40;100.00
48668;BME280;34453;52.198;5.004;2022-09-20T12:24:29;102566.97;;;19.47;100.00
48668;BME280;34453;52.198;5.004;2022-09-20T12:41:17;102569.88;;;18.02;100.00
48668;BME280;34453;52.198;5.004;2022-09-20T12:44:05;102567.06;;;17.76;100.00
48668;BME280;34453;52.198;5.004;2022-09-20T12:46:55;102567.75;;;17.50;100.00
48668;BME280;34453;52.198;5.004;2022-09-20T12:49:41;102566.91;;;17.50;100.00
48668;BME280;34453;52.198;5.004;2022-09-20T12:55:35;102563.63;;;17.28;100.00
48668;BME280;34453;52.198;5.004;2022-09-20T13:05:43;102564.66;;;17.08;100.00
48668;BME280;34453;52.198;5.004;2022-09-20T13:08:15;102562.25;;;17.24;100.00
48668;BME280;34453;52.198;5.004;2022-09-20T13:11:07;102562.19;;;17.44;100.00
48668;BME280;34453;52.198;5.004;2022-09-20T13:19:21;102561.59;;;17.87;100.00
48668;BME280;34453;52.198;5.004;2022-09-20T13:22:09;102562.16;;;17.91;100.00
48668;BME280;34453;52.198;5.004;2022-09-20T13:24:40;102567.34;;;17.83;100.00
48668;BME280;34453;52.198;5.004;2022-09-20T13:27:17;102549.91;;;17.90;100.00
48668;BME280;34453;52.198;5.004;2022-09-20T13:29:45;102556.97;;;18.17;100.00
48668;BME280;34453;52.198;5.004;2022-09-20T13:32:37;102560.38;;;18.27;100.00
48668;BME280;34453;52.198;5.004;2022-09-20T13:38:01;102554.94;;;18.29;100.00
48668;BME280;34453;52.198;5.004;2022-09-20T13:40:38;102562.81;;;18.38;100.00
48668;BME280;34453;52.198;5.004;2022-09-20T13:45:47;102549.13;;;18.79;100.00
48668;BME280;34453;52.198;5.004;2022-09-20T13:48:16;102546.38;;;18.71;100.00
48668;BME280;34453;52.198;5.004;2022-09-20T13:50:42;102542.28;;;18.58;100.00
48668;BME280;34453;52.198;5.004;2022-09-20T13:53:16;102543.75;;;19.15;100.00
48668;BME280;34453;52.198;5.004;2022-09-20T13:55:43;102548.31;;;19.65;100.00
48668;BME280;34453;52.198;5.004;2022-09-20T13:58:31;102547.84;;;19.70;100.00
48668;BME280;34453;52.198;5.004;2022-09-20T14:03:26;102552.47;;;19.33;100.00
48668;BME280;34453;52.198;5.004;2022-09-20T14:05:55;102545.59;;;19.22;100.00
48668;BME280;34453;52.198;5.004;2022-09-20T14:08:30;102539.34;;;18.79;100.00
48668;BME280;34453;52.198;5.004;2022-09-20T14:11:06;102542.00;;;18.61;100.00
48668;BME280;34453;52.198;5.004;2022-09-20T14:13:39;102549.50;;;18.30;100.00
48668;BME280;34453;52.198;5.004;2022-09-20T14:16:06;102544.47;;;18.09;100.00
48668;BME280;34453;52.198;5.004;2022-09-20T14:18:34;102544.34;;;18.11;100.00
48668;BME280;34453;52.198;5.004;2022-09-20T14:21:02;102532.97;;;18.00;100.00
48668;BME280;34453;52.198;5.004;2022-09-20T14:23:30;102549.66;;;17.73;100.00
48668;BME280;34453;52.198;5.004;2022-09-20T14:26:29;102548.22;;;17.61;100.00
48668;BME280;34453;52.198;5.004;2022-09-20T14:32:45;102546.25;;;17.63;100.00
48668;BME280;34453;52.198;5.004;2022-09-20T14:34:57;102548.28;;;17.32;100.00
48668;BME280;34453;52.198;5.004;2022-09-20T14:37:30;102556.72;;;17.08;100.00
48668;BME280;34453;52.198;5.004;2022-09-20T14:39:59;102554.78;;;17.10;100.00
48668;BME280;34453;52.198;5.004;2022-09-20T14:44:51;102554.59;;;17.21;100.00
48668;BME280;34453;52.198;5.004;2022-09-20T14:51:07;102556.72;;;17.08;100.00
48668;BME280;34453;52.198;5.004;2022-09-20T14:53:32;102565.91;;;17.04;100.00
48668;BME280;34453;52.198;5.004;2022-09-20T14:58:30;102563.81;;;16.78;100.00
48668;BME280;34453;52.198;5.004;2022-09-20T15:03:43;102566.19;;;16.62;100.00
48668;BME280;34453;52.198;5.004;2022-09-20T15:06:11;102572.56;;;16.69;100.00
48668;BME280;34453;52.198;5.004;2022-09-20T15:08:38;102568.13;;;16.69;100.00
48668;BME280;34453;52.198;5.004;2022-09-20T15:11:06;102559.22;;;16.61;100.00
48668;BME280;34453;52.198;5.004;2022-09-20T15:13:33;102554.91;;;16.40;100.00
48668;BME280;34453;52.198;5.004;2022-09-20T15:18:29;102566.19;;;16.62;100.00
48668;BME280;34453;52.198;5.004;2022-09-20T15:20:59;102565.06;;;16.54;100.00
48668;BME280;34453;52.198;5.004;2022-09-20T15:23:26;102555.91;;;16.58;100.00
48668;BME280;34453;52.198;5.004;2022-09-20T15:25:54;102565.06;;;16.74;100.00
48668;BME280;34453;52.198;5.004;2022-09-20T15:28:20;102567.63;;;16.85;100.00
48668;BME280;34453;52.198;5.004;2022-09-20T15:30:48;102562.94;;;17.26;100.00
48668;BME280;34453;52.198;5.004;2022-09-20T15:33:16;102571.72;;;17.17;100.00
48668;BME280;34453;52.198;5.004;2022-09-20T15:35:44;102565.06;;;17.13;100.00
48668;BME280;34453;52.198;5.004;2022-09-20T15:38:12;102562.28;;;17.89;100.00
48668;BME280;34453;52.198;5.004;2022-09-20T15:40:46;102549.97;;;18.61;100.00
48668;BME280;34453;52.198;5.004;2022-09-20T15:43:19;102554.38;;;19.49;100.00
48668;BME280;34453;52.198;5.004;2022-09-20T15:45:51;102540.50;;;20.06;100.00
48668;BME280;34453;52.198;5.004;2022-09-20T15:48:24;102541.09;;;20.67;100.00
48668;BME280;34453;52.198;5.004;2022-09-20T15:54:13;102539.41;;;20.99;100.00
48668;BME280;34453;52.198;5.004;2022-09-20T15:58:50;102550.56;;;21.98;100.00
48668;BME280;34453;52.198;5.004;2022-09-20T16:01:17;102543.00;;;22.55;100.00
48668;BME280;34453;52.198;5.004;2022-09-20T16:03:45;102544.44;;;22.66;100.00
48668;BME280;34453;52.198;5.004;2022-09-20T16:06:12;102542.34;;;22.91;100.00
48668;BME280;34453;52.198;5.004;2022-09-20T16:08:41;102550.06;;;23.39;100.00
48668;BME280;34453;52.198;5.004;2022-09-20T16:11:09;102553.91;;;23.66;100.00
48668;BME280;34453;52.198;5.004;2022-09-20T16:13:37;102550.69;;;23.86;100.00
48668;BME280;34453;52.198;5.004;2022-09-20T16:16:05;102552.84;;;23.97;100.00
48668;BME280;34453;52.198;5.004;2022-09-20T16:18:31;102549.97;;;23.98;100.00
48668;BME280;34453;52.198;5.004;2022-09-20T16:21:20;102561.47;;;24.35;100.00
48668;BME280;34453;52.198;5.004;2022-09-20T16:23:50;102556.13;;;24.35;100.00
48668;BME280;34453;52.198;5.004;2022-09-20T16:26:18;102559.03;;;23.97;100.00
48668;BME280;34453;52.198;5.004;2022-09-20T16:28:46;102549.66;;;23.87;100.00
48668;BME280;34453;52.198;5.004;2022-09-20T16:31:39;102559.44;;;23.79;100.00
48668;BME280;34453;52.198;5.004;2022-09-20T16:34:14;102563.97;;;24.00;100.00
48668;BME280;34453;52.198;5.004;2022-09-20T16:36:48;102553.59;;;24.49;100.00
48668;BME280;34453;52.198;5.004;2022-09-20T16:39:17;102560.03;;;24.82;100.00
48668;BME280;34453;52.198;5.004;2022-09-20T16:41:47;102560.13;;;24.96;100.00
48668;BME280;34453;52.198;5.004;2022-09-20T16:44:16;102565.53;;;24.74;100.00
48668;BME280;34453;52.198;5.004;2022-09-20T16:46:43;102575.47;;;24.37;100.00
48668;BME280;34453;52.198;5.004;2022-09-20T16:49:10;102565.72;;;23.42;100.00
48668;BME280;34453;52.198;5.004;2022-09-20T16:51:40;102565.94;;;22.88;100.00
48668;BME280;34453;52.198;5.004;2022-09-20T16:54:10;102578.53;;;22.02;100.00
48668;BME280;34453;52.198;5.004;2022-09-20T16:56:39;102571.13;;;21.41;100.00
48668;BME280;34453;52.198;5.004;2022-09-20T16:59:06;102578.78;;;21.28;100.00
48668;BME280;34453;52.198;5.004;2022-09-20T17:01:34;102577.84;;;20.88;100.00
48668;BME280;34453;52.198;5.004;2022-09-20T17:04:02;102587.13;;;20.67;100.00
48668;BME280;34453;52.198;5.004;2022-09-20T17:06:34;102594.00;;;20.27;100.00
48668;BME280;34453;52.198;5.004;2022-09-20T17:09:01;102587.06;;;20.26;100.00
48668;BME280;34453;52.198;5.004;2022-09-20T17:11:31;102586.47;;;19.98;100.00
48668;BME280;34453;52.198;5.004;2022-09-20T17:13:58;102597.94;;;20.07;100.00
48668;BME280;34453;52.198;5.004;2022-09-20T17:16:26;102587.53;;;19.45;100.00
48668;BME280;34453;52.198;5.004;2022-09-20T17:18:58;102592.13;;;19.09;100.00
48668;BME280;34453;52.198;5.004;2022-09-20T17:21:26;102595.19;;;18.78;100.00
48668;BME280;34453;52.198;5.004;2022-09-20T17:23:55;102598.25;;;18.37;100.00
48668;BME280;34453;52.198;5.004;2022-09-20T17:26:29;102606.59;;;17.97;100.00
48668;BME280;34453;52.198;5.004;2022-09-20T17:29:00;102599.31;;;17.61;100.00
48668;BME280;34453;52.198;5.004;2022-09-20T17:31:29;102617.69;;;17.63;100.00
48668;BME280;34453;52.198;5.004;2022-09-20T17:33:58;102611.28;;;17.66;100.00
48668;BME280;34453;52.198;5.004;2022-09-20T17:36:30;102616.06;;;17.43;100.00
48668;BME280;34453;52.198;5.004;2022-09-20T17:38:58;102614.69;;;17.48;100.00
48668;BME280;34453;52.198;5.004;2022-09-20T17:41:26;102629.03;;;17.46;100.00
48668;BME280;34453;52.198;5.004;2022-09-20T17:43:55;102627.81;;;17.11;100.00
48668;BME280;34453;52.198;5.004;2022-09-20T17:46:24;102617.38;;;16.70;100.00
48668;BME280;34453;52.198;5.004;2022-09-20T17:49:00;102628.19;;;16.57;100.00
48668;BME280;34453;52.198;5.004;2022-09-20T17:51:38;102633.16;;;16.31;100.00
48668;BME280;34453;52.198;5.004;2022-09-20T17:54:07;102630.66;;;16.30;100.00
48668;BME280;34453;52.198;5.004;2022-09-20T17:56:38;102630.06;;;16.16;100.00
48668;BME280;34453;52.198;5.004;2022-09-20T17:59:07;102632.41;;;16.10;100.00
48668;BME280;34453;52.198;5.004;2022-09-20T18:01:35;102636.06;;;15.88;100.00
48668;BME280;34453;52.198;5.004;2022-09-20T18:04:06;102628.50;;;15.73;100.00
48668;BME280;34453;52.198;5.004;2022-09-20T18:06:36;102648.56;;;15.44;100.00
48668;BME280;34453;52.198;5.004;2022-09-20T18:09:07;102646.00;;;15.32;100.00
48668;BME280;34453;52.198;5.004;2022-09-20T18:11:40;102643.25;;;15.34;100.00
48668;BME280;34453;52.198;5.004;2022-09-20T18:14:09;102635.44;;;15.32;100.00
48668;BME280;34453;52.198;5.004;2022-09-20T18:16:36;102648.44;;;15.24;100.00
48668;BME280;34453;52.198;5.004;2022-09-20T18:19:05;102651.19;;;15.02;100.00
48668;BME280;34453;52.198;5.004;2022-09-20T18:21:34;102660.69;;;14.93;100.00
48668;BME280;34453;52.198;5.004;2022-09-20T18:24:05;102658.88;;;14.93;100.00